createdAt,value
2024-04-08T00:02:36.275Z,13.53
2024-04-08T00:05:38.592Z,13.47
2024-04-08T00:08:40.707Z,12.69
2024-04-08T00:11:43.003Z,13.41
2024-04-08T00:14:44.959Z,13.41
2024-04-08T00:17:47.258Z,13.37
2024-04-08T00:20:49.275Z,13.32
2024-04-08T00:23:51.327Z,13.28
2024-04-08T00:26:53.451Z,13.17
2024-04-08T00:29:55.508Z,13.19
2024-04-08T00:32:57.887Z,13.17
2024-04-08T00:36:00.525Z,13.17
2024-04-08T00:39:02.640Z,13.05
2024-04-08T00:42:04.852Z,13.09
2024-04-08T00:45:07.001Z,12.80
2024-04-08T00:48:11.188Z,13.04
2024-04-08T00:51:13.317Z,12.86
2024-04-08T00:54:15.626Z,12.98
2024-04-08T00:57:22.398Z,12.96
2024-04-08T01:00:26.221Z,12.94
2024-04-08T01:03:28.908Z,12.84
2024-04-08T01:06:31.128Z,12.75
2024-04-08T01:09:33.734Z,12.86
2024-04-08T01:12:35.919Z,12.74
2024-04-08T01:15:38.408Z,12.52
2024-04-08T01:18:40.633Z,12.49
2024-04-08T01:21:42.747Z,12.78
2024-04-08T01:24:44.878Z,12.66
2024-04-08T01:27:46.997Z,12.67
2024-04-08T01:30:51.293Z,12.71
2024-04-08T01:33:53.451Z,12.65
2024-04-08T01:36:55.596Z,12.50
2024-04-08T01:39:57.545Z,12.57
2024-04-08T01:42:59.719Z,12.65
2024-04-08T01:46:01.845Z,12.62
2024-04-08T01:49:04.589Z,12.59
2024-04-08T01:52:07.823Z,12.54
2024-04-08T01:55:09.792Z,12.44
2024-04-08T01:58:12.064Z,12.36
2024-04-08T02:01:14.069Z,12.39
2024-04-08T02:04:16.067Z,12.35
2024-04-08T02:07:18.554Z,12.35
2024-04-08T02:10:20.680Z,12.27
2024-04-08T02:13:22.747Z,12.37
2024-04-08T02:16:24.799Z,12.01
2024-04-08T02:19:26.884Z,12.40
2024-04-08T02:22:28.812Z,12.39
2024-04-08T02:25:30.913Z,12.39
2024-04-08T02:28:33.100Z,12.39
2024-04-08T02:31:35.081Z,12.35
2024-04-08T02:34:37.129Z,12.36
2024-04-08T02:37:39.032Z,12.32
2024-04-08T02:40:41.105Z,12.28
2024-04-08T02:43:43.123Z,12.20
2024-04-08T02:46:45.259Z,12.22
2024-04-08T02:49:47.272Z,12.16
2024-04-08T02:52:49.363Z,12.09
2024-04-08T02:56:02.065Z,12.12
2024-04-08T02:59:04.904Z,12.06
2024-04-08T03:02:06.967Z,11.87
2024-04-08T03:05:09.778Z,12.00
2024-04-08T03:08:11.907Z,11.93
2024-04-08T03:11:13.882Z,11.93
2024-04-08T03:14:16.099Z,11.86
2024-04-08T03:17:18.208Z,11.84
2024-04-08T03:20:20.219Z,11.83
2024-04-08T03:23:23.280Z,11.82
2024-04-08T03:26:25.432Z,11.77
2024-04-08T03:29:27.594Z,11.74
2024-04-08T03:32:29.614Z,11.70
2024-04-08T03:35:31.790Z,11.66
2024-04-08T03:38:33.961Z,11.52
2024-04-08T03:41:36.108Z,11.62
2024-04-08T03:44:38.188Z,11.57
2024-04-08T03:47:40.326Z,11.26
2024-04-08T03:50:42.674Z,11.49
2024-04-08T03:53:47.925Z,11.54
2024-04-08T03:56:50.093Z,11.59
2024-04-08T03:59:53.483Z,11.64
2024-04-08T04:02:55.822Z,11.65
2024-04-08T04:05:58.013Z,11.54
2024-04-08T04:09:00.039Z,11.56
2024-04-08T04:12:02.005Z,11.52
2024-04-08T04:15:05.410Z,11.48
2024-04-08T04:18:07.463Z,11.44
2024-04-08T04:21:09.488Z,11.30
2024-04-08T04:24:11.596Z,11.33
2024-04-08T04:27:13.779Z,11.21
2024-04-08T04:30:15.876Z,11.29
2024-04-08T04:33:17.935Z,11.33
2024-04-08T04:36:19.987Z,11.36
2024-04-08T04:39:22.332Z,11.33
2024-04-08T04:42:24.501Z,11.37
2024-04-08T04:45:26.510Z,11.37
2024-04-08T04:48:28.787Z,11.47
2024-04-08T04:51:31.402Z,11.57
2024-04-08T04:54:33.792Z,11.91
2024-04-08T04:57:35.748Z,12.17
2024-04-08T05:00:38.888Z,12.37
2024-04-08T05:03:41.052Z,12.68
2024-04-08T05:06:43.227Z,13.06
2024-04-08T05:09:45.191Z,13.24
2024-04-08T05:12:47.177Z,13.30
2024-04-08T05:15:59.459Z,13.41
2024-04-08T05:19:01.641Z,13.44
2024-04-08T05:22:04.961Z,13.42
2024-04-08T05:25:07.760Z,13.53
2024-04-08T05:28:09.847Z,13.80
2024-04-08T05:31:12.359Z,13.98
2024-04-08T05:34:14.465Z,14.23
2024-04-08T05:37:16.428Z,14.49
2024-04-08T05:40:18.504Z,14.82
2024-04-08T05:43:21.167Z,15.12
2024-04-08T05:46:23.587Z,15.39
2024-04-08T05:49:25.704Z,15.68
2024-04-08T05:52:28.524Z,15.93
2024-04-08T05:55:32.123Z,16.04
2024-04-08T05:58:34.259Z,16.14
2024-04-08T06:01:36.654Z,16.25
2024-04-08T06:04:38.633Z,16.41
2024-04-08T06:07:40.771Z,16.72
2024-04-08T06:10:51.789Z,17.06
2024-04-08T06:13:53.879Z,17.36
2024-04-08T06:17:00.364Z,17.74
2024-04-08T06:20:03.423Z,18.03
2024-04-08T06:23:05.537Z,18.43
2024-04-08T06:26:07.584Z,18.90
2024-04-08T06:29:09.864Z,19.09
2024-04-08T06:32:12.391Z,18.92
2024-04-08T06:35:14.442Z,19.20
2024-04-08T06:38:16.564Z,19.24
2024-04-08T06:41:20.262Z,19.17
2024-04-08T06:44:22.294Z,19.28
2024-04-08T06:47:26.373Z,19.31
2024-04-08T06:50:30.307Z,19.36
2024-04-08T06:53:32.427Z,19.47
2024-04-08T06:56:34.479Z,19.52
2024-04-08T06:59:36.468Z,19.58
2024-04-08T07:02:38.659Z,19.58
2024-04-08T07:05:46.434Z,19.72
2024-04-08T07:08:48.370Z,19.90
2024-04-08T07:11:50.532Z,19.85
2024-04-08T07:14:56.112Z,20.23
2024-04-08T07:17:58.452Z,20.12
2024-04-08T07:21:00.782Z,20.14
2024-04-08T07:24:03.097Z,19.76
2024-04-08T07:27:07.000Z,19.83
2024-04-08T07:30:09.531Z,19.73
2024-04-08T07:33:12.072Z,19.57
2024-04-08T07:36:14.481Z,19.34
2024-04-08T07:39:16.531Z,19.37
2024-04-08T07:42:18.708Z,19.16
2024-04-08T07:45:20.907Z,19.50
2024-04-08T07:48:23.131Z,19.60
2024-04-08T07:51:25.247Z,19.64
2024-04-08T07:54:27.349Z,19.63
2024-04-08T07:57:29.460Z,19.70
2024-04-08T08:00:31.722Z,19.79
2024-04-08T08:03:34.607Z,19.78
2024-04-08T08:06:37.049Z,19.82
2024-04-08T08:09:39.182Z,19.85
2024-04-08T08:12:41.285Z,20.02
2024-04-08T08:15:43.323Z,20.11
2024-04-08T08:18:47.330Z,20.40
2024-04-08T08:21:49.440Z,20.61
2024-04-08T08:24:51.840Z,20.97
2024-04-08T08:27:54.031Z,20.87
2024-04-08T08:30:56.113Z,21.40
2024-04-08T08:33:58.328Z,21.56
2024-04-08T08:37:00.472Z,21.76
2024-04-08T08:40:02.452Z,21.56
2024-04-08T08:43:05.881Z,22.03
2024-04-08T08:46:09.608Z,22.20
2024-04-08T08:49:13.117Z,22.42
2024-04-08T08:52:15.233Z,22.53
2024-04-08T08:55:20.763Z,22.58
2024-04-08T08:58:23.081Z,22.43
2024-04-08T09:01:25.384Z,22.30
2024-04-08T09:04:28.280Z,22.39
2024-04-08T09:07:30.333Z,22.31
2024-04-08T09:10:46.324Z,22.68
2024-04-08T09:13:50.660Z,22.86
2024-04-08T09:16:53.819Z,23.04
2024-04-08T09:19:56.205Z,23.03
2024-04-08T09:22:58.314Z,23.07
2024-04-08T09:26:00.477Z,22.86
2024-04-08T09:29:03.291Z,22.95
2024-04-08T09:32:09.640Z,23.11
2024-04-08T09:35:12.603Z,23.12
2024-04-08T09:38:15.136Z,23.38
2024-04-08T09:41:18.784Z,23.53
2024-04-08T09:44:21.746Z,23.34
2024-04-08T09:47:27.369Z,23.73
2024-04-08T09:50:29.771Z,23.72
2024-04-08T09:53:34.362Z,23.99
2024-04-08T09:56:39.051Z,24.19
2024-04-08T09:59:46.449Z,24.18
2024-04-08T10:02:53.746Z,24.34
2024-04-08T10:05:56.581Z,24.36
2024-04-08T10:08:59.375Z,24.42
2024-04-08T10:12:05.684Z,24.16
2024-04-08T10:15:11.780Z,24.52
2024-04-08T10:18:14.204Z,24.50
2024-04-08T10:21:16.733Z,24.73
2024-04-08T10:24:38.428Z,24.68
2024-04-08T10:27:42.047Z,24.74
2024-04-08T10:30:50.091Z,24.79
2024-04-08T10:33:52.123Z,24.91
2024-04-08T10:36:55.983Z,24.82
2024-04-08T10:39:59.235Z,24.61
2024-04-08T10:43:01.650Z,24.89
2024-04-08T10:46:12.186Z,24.97
2024-04-08T10:49:14.802Z,25.09
2024-04-08T10:52:16.838Z,25.04
2024-04-08T10:55:19.134Z,25.09
2024-04-08T10:58:21.259Z,25.08
2024-04-08T11:01:23.749Z,24.83
2024-04-08T11:04:25.942Z,25.09
2024-04-08T11:07:30.568Z,25.22
2024-04-08T11:10:32.776Z,25.26
2024-04-08T11:13:35.156Z,25.13
2024-04-08T11:16:37.597Z,25.27
2024-04-08T11:19:44.947Z,25.25
2024-04-08T11:22:47.024Z,24.92
2024-04-08T11:25:49.414Z,25.67
2024-04-08T11:28:59.602Z,25.64
2024-04-08T11:32:01.647Z,25.61
2024-04-08T11:35:05.201Z,25.64
2024-04-08T11:38:21.325Z,25.68
2024-04-08T11:41:31.647Z,25.95
2024-04-08T11:44:35.554Z,25.90
2024-04-08T11:47:38.901Z,25.86
2024-04-08T11:50:43.338Z,25.93
2024-04-08T11:53:46.154Z,25.69
2024-04-08T11:56:48.711Z,25.70
2024-04-08T11:59:50.953Z,25.76
2024-04-08T12:02:53.075Z,25.81
2024-04-08T12:05:55.187Z,25.83
2024-04-08T12:08:58.035Z,25.95
2024-04-08T12:12:00.332Z,25.99
2024-04-08T12:15:06.954Z,25.90
2024-04-08T12:18:09.236Z,25.99
2024-04-08T12:21:11.942Z,25.95
2024-04-08T12:24:14.141Z,26.00
2024-04-08T12:27:17.114Z,26.08
2024-04-08T12:30:20.751Z,26.21
2024-04-08T12:33:22.991Z,26.17
2024-04-08T12:36:26.980Z,26.08
2024-04-08T12:39:31.291Z,25.95
2024-04-08T12:42:33.402Z,26.02
2024-04-08T12:45:35.936Z,26.01
2024-04-08T12:48:43.073Z,26.06
2024-04-08T12:51:47.403Z,25.96
2024-04-08T12:54:51.379Z,25.93
2024-04-08T12:57:54.173Z,25.82
2024-04-08T13:00:56.262Z,25.68
2024-04-08T13:03:58.336Z,25.60
2024-04-08T13:07:00.443Z,25.63
2024-04-08T13:10:02.524Z,25.73
2024-04-08T13:13:04.820Z,25.73
2024-04-08T13:16:09.365Z,25.85
2024-04-08T13:23:46.226Z,25.96
2024-04-08T13:26:48.557Z,25.97
2024-04-08T13:29:50.759Z,25.93
2024-04-08T13:32:53.201Z,26.03
2024-04-08T13:35:55.400Z,25.95
2024-04-08T13:38:58.309Z,26.00
2024-04-08T13:42:00.481Z,25.93
2024-04-08T13:45:02.729Z,26.08
2024-04-08T13:48:05.165Z,26.04
2024-04-08T13:51:07.480Z,25.96
2024-04-08T13:54:09.623Z,25.92
2024-04-08T13:57:11.852Z,25.38
2024-04-08T14:00:15.436Z,25.88
2024-04-08T14:03:17.732Z,25.90
2024-04-08T14:06:20.659Z,25.60
2024-04-08T14:09:22.891Z,25.76
2024-04-08T14:12:25.064Z,25.72
2024-04-08T14:15:27.227Z,25.65
2024-04-08T14:18:30.270Z,25.57
2024-04-08T14:21:32.432Z,25.50
2024-04-08T14:24:34.603Z,25.49
2024-04-08T14:27:36.911Z,25.44
2024-04-08T14:30:39.246Z,25.49
2024-04-08T14:33:41.628Z,25.44
2024-04-08T14:36:44.296Z,25.13
2024-04-08T14:39:46.230Z,25.28
2024-04-08T14:42:48.404Z,25.24
2024-04-08T14:45:50.539Z,25.21
2024-04-08T14:48:53.119Z,25.22
2024-04-08T14:52:03.056Z,25.17
2024-04-08T14:55:12.058Z,25.22
2024-04-08T14:58:14.387Z,24.99
2024-04-08T15:01:17.102Z,25.10
2024-04-08T15:04:19.261Z,25.11
2024-04-08T15:07:27.615Z,25.05
2024-04-08T15:10:30.918Z,24.90
2024-04-08T15:13:33.098Z,24.91
2024-04-08T15:16:35.304Z,24.90
2024-04-08T15:19:37.436Z,24.74
2024-04-08T15:22:39.665Z,24.69
2024-04-08T15:25:43.055Z,24.73
2024-04-08T15:28:46.776Z,24.65
2024-04-08T15:31:48.807Z,24.59
2024-04-08T15:34:52.104Z,24.54
2024-04-08T15:38:00.382Z,24.59
2024-04-08T15:41:02.585Z,24.55
2024-04-08T15:44:04.813Z,24.52
2024-04-08T15:47:07.183Z,24.53
2024-04-08T15:50:10.319Z,24.42
2024-04-08T15:53:12.275Z,24.52
2024-04-08T15:56:14.356Z,24.38
2024-04-08T15:59:16.379Z,24.03
2024-04-08T16:02:18.727Z,24.45
2024-04-08T16:05:22.689Z,24.29
2024-04-08T16:08:24.747Z,24.41
2024-04-08T16:11:29.817Z,24.31
2024-04-08T16:14:31.968Z,24.37
2024-04-08T16:17:34.198Z,24.28
2024-04-08T16:20:38.510Z,24.20
2024-04-08T16:23:54.600Z,24.18
2024-04-08T16:26:58.603Z,24.19
2024-04-08T16:30:00.766Z,24.19
2024-04-08T16:33:03.142Z,24.16
2024-04-08T16:36:10.102Z,24.13
2024-04-08T16:39:20.072Z,24.05
2024-04-08T16:42:22.568Z,23.95
2024-04-08T16:45:25.810Z,23.80
2024-04-08T16:48:30.213Z,23.92
2024-04-08T16:51:33.255Z,23.80
2024-04-08T16:54:35.786Z,23.63
2024-04-08T16:57:39.473Z,23.58
2024-04-08T17:00:41.802Z,23.44
2024-04-08T17:03:44.907Z,23.19
2024-04-08T17:06:52.514Z,23.27
2024-04-08T17:09:55.083Z,23.24
2024-04-08T17:12:57.161Z,23.03
2024-04-08T17:15:59.634Z,22.95
2024-04-08T17:19:02.701Z,22.47
2024-04-08T17:22:05.193Z,22.72
2024-04-08T17:25:07.617Z,22.64
2024-04-08T17:28:09.791Z,22.47
2024-04-08T17:31:11.730Z,22.14
2024-04-08T17:34:13.997Z,22.35
2024-04-08T17:37:16.394Z,22.25
2024-04-08T17:40:19.924Z,22.15
2024-04-08T17:43:21.917Z,22.11
2024-04-08T17:46:25.016Z,21.74
2024-04-08T17:49:27.028Z,21.88
2024-04-08T17:52:29.129Z,21.80
2024-04-08T17:55:31.361Z,21.74
2024-04-08T17:58:35.380Z,21.67
2024-04-08T18:01:37.705Z,21.58
2024-04-08T18:04:41.141Z,21.53
2024-04-08T18:07:44.467Z,21.44
2024-04-08T18:10:58.259Z,21.39
2024-04-08T18:14:02.286Z,21.01
2024-04-08T18:17:04.665Z,21.12
2024-04-08T18:20:07.795Z,21.15
2024-04-08T18:23:10.002Z,21.17
2024-04-08T18:26:16.250Z,21.01
2024-04-08T18:29:18.304Z,21.04
2024-04-08T18:32:21.387Z,21.01
2024-04-08T18:35:23.484Z,20.96
2024-04-08T18:38:27.252Z,20.88
2024-04-08T18:41:29.300Z,20.77
2024-04-08T18:44:31.360Z,20.57
2024-04-08T18:47:33.397Z,20.20
2024-04-08T18:50:35.547Z,20.46
2024-04-08T18:53:37.582Z,20.07
2024-04-08T18:56:39.834Z,20.26
2024-04-08T18:59:41.826Z,20.11
2024-04-08T19:02:43.908Z,20.04
2024-04-08T19:05:49.748Z,19.91
2024-04-08T19:08:53.335Z,19.89
2024-04-08T19:11:55.477Z,19.71
2024-04-08T19:14:57.615Z,19.45
2024-04-08T19:17:59.924Z,19.59
2024-04-08T19:21:09.335Z,19.63
2024-04-08T19:24:12.905Z,19.60
2024-04-08T19:27:15.068Z,19.56
2024-04-08T19:30:18.163Z,19.56
2024-04-08T19:33:20.330Z,19.52
2024-04-08T19:36:23.694Z,19.49
2024-04-08T19:39:27.210Z,19.35
2024-04-08T19:42:31.201Z,19.39
2024-04-08T19:45:38.856Z,19.28
2024-04-08T19:48:44.674Z,19.25
2024-04-08T19:51:47.482Z,19.23
2024-04-08T19:54:51.981Z,19.02
2024-04-08T19:57:54.052Z,19.08
2024-04-08T20:00:56.049Z,18.95
2024-04-08T20:04:00.476Z,18.90
2024-04-08T20:07:02.653Z,18.82
2024-04-08T20:10:05.216Z,18.84
2024-04-08T20:13:07.241Z,18.80
2024-04-08T20:16:19.386Z,18.74
2024-04-08T20:19:21.772Z,18.66
2024-04-08T20:22:23.968Z,18.58
2024-04-08T20:25:25.995Z,18.46
2024-04-08T20:28:28.234Z,18.48
2024-04-08T20:31:31.148Z,18.43
2024-04-08T20:34:35.413Z,18.29
2024-04-08T20:37:39.689Z,18.28
2024-04-08T20:40:41.672Z,18.29
2024-04-08T20:43:43.801Z,18.21
2024-04-08T20:46:45.826Z,18.17
2024-04-08T20:49:50.919Z,18.12
2024-04-08T20:52:54.006Z,18.06
2024-04-08T20:56:04.230Z,18.01
2024-04-08T20:59:06.501Z,17.88
2024-04-08T21:02:08.566Z,17.90
2024-04-08T21:05:10.742Z,17.78
2024-04-08T21:08:13.313Z,17.70
2024-04-08T21:11:15.392Z,17.76
2024-04-08T21:14:17.864Z,17.62
2024-04-08T21:17:19.905Z,17.66
2024-04-08T21:20:21.936Z,17.57
2024-04-08T21:23:24.305Z,17.47
2024-04-08T21:26:26.340Z,17.50
2024-04-08T21:29:28.424Z,17.47
2024-04-08T21:32:30.701Z,17.41
2024-04-08T21:35:33.718Z,17.33
2024-04-08T21:38:36.186Z,17.26
2024-04-08T21:41:38.321Z,17.24
2024-04-08T21:44:40.458Z,16.96
2024-04-08T21:47:42.468Z,17.03
2024-04-08T21:50:49.800Z,16.96
2024-04-08T21:53:51.929Z,17.01
2024-04-08T21:56:54.217Z,16.97
2024-04-08T21:59:56.303Z,16.88
2024-04-08T22:02:58.425Z,16.84
2024-04-08T22:06:00.649Z,16.80
2024-04-08T22:09:02.774Z,16.81
2024-04-08T22:12:04.978Z,16.70
2024-04-08T22:15:07.203Z,16.79
2024-04-08T22:18:10.664Z,16.75
2024-04-08T22:21:12.914Z,16.65
2024-04-08T22:24:15.072Z,16.63
2024-04-08T22:27:17.209Z,16.58
2024-04-08T22:30:19.483Z,16.13
2024-04-08T22:33:21.705Z,16.48
2024-04-08T22:36:24.160Z,16.49
2024-04-08T22:39:26.264Z,16.44
2024-04-08T22:42:28.474Z,16.40
2024-04-08T22:45:39.760Z,16.34
2024-04-08T22:48:42.180Z,16.26
2024-04-08T22:51:44.687Z,15.90
2024-04-08T22:54:47.148Z,16.22
2024-04-08T22:57:49.187Z,16.17
2024-04-08T23:00:51.497Z,16.15
2024-04-08T23:03:54.267Z,16.10
2024-04-08T23:06:56.591Z,16.11
2024-04-08T23:09:59.054Z,16.07
2024-04-08T23:13:01.094Z,16.03
2024-04-08T23:16:03.366Z,15.96
2024-04-08T23:19:05.648Z,15.29
2024-04-08T23:22:07.977Z,15.86
2024-04-08T23:25:10.177Z,15.80
2024-04-08T23:28:12.241Z,15.67
2024-04-08T23:31:14.183Z,15.77
2024-04-08T23:34:16.517Z,15.75
2024-04-08T23:37:19.026Z,15.73
2024-04-08T23:40:21.768Z,15.73
2024-04-08T23:43:26.902Z,15.60
2024-04-08T23:46:28.928Z,15.66
2024-04-08T23:49:31.024Z,15.63
2024-04-08T23:52:33.168Z,15.62
2024-04-08T23:55:35.258Z,15.60
2024-04-08T23:58:37.765Z,15.60
